Rye, NH

7:11 PM EDT on August 30, 2015 (GMT -0400)
Weather Station on Appledore Island, ME | | Change Station
CLOSE
Current Station
Personal Weather Station
Location: Appledore Island, ME
Elevation: 0 ft
Nearby Weather Stations

Elev 0 ft 42.99 °N, 70.61 °W | Updated 72 days ago

Partly Cloudy
Partly Cloudy
69 °F
Feels Like 69 °F
N
4
Wind Variable Wind from SSW
Gusts mph

Today
High -- | Low -- °F
--% Chance of Precip.
Yesterday
High -- | Low -- °F
Precip. -- in
6:04 AM 7:21 PM
Full, 98% visible
Pressure 29.99 in
Visibility 10.0 miles
Clouds Scattered Clouds 14000 ft
Mostly Cloudy 21000 ft
Dew Point 63 °F
Humidity 82%
Rainfall in
Snow Depth Not available.
UV 0 out of 12
Pollen 8.10 out of 12
Air Quality Not available.
Flu Activity Not available.
METAR KPSM 302258Z 16007KT 10SM SCT140 BKN210 24/17 A2998 RMK AO2A SLP154 T02410171
Pressure 29.99 in
Visibility 10.0 miles
Clouds Scattered Clouds 14000 ft
Mostly Cloudy 21000 ft
Dew Point 63 °F
Humidity 82%
Rainfall in
Snow Depth Not available.
UV 0 out of 12
Pollen 8.10 out of 12
Air Quality Not available.
Flu Activity Not available.
METAR KPSM 302258Z 16007KT 10SM SCT140 BKN210 24/17 A2998 RMK AO2A SLP154 T02410171

10-Day Weather Forecast

×

Almanac

Astronomy

Aug. 30, 2015 Rise Set
Actual Time
Civil Twilight
Nautical Twilight
Astronomical Twilight
Moon
Length of Visible Light
Length of Day
Tomorrow will be .
, % of the Moon is Illuminated

Today's Extremes

State Highs State Lows

Community

WunderPhotos

Upload Photos

1,851,088 photos uploaded!

WunderBlogs® & News

Nearby

Air Quality

  Air Quality AQ Index Pollutant
Not available.

Snow Depth

Station Depth Elevation

Earthquake Activity

City Distance Mag. Time & Date
Minimum magnitude displayed is 2.5.

Coastal Water Temperatures

Place Temperature

Stations

Nearby Weather Stations

Station Location Temp. Windchill Dew Point Humidity Wind Precip. Elev Updated Type